createdAt,value
2017-10-03T00:00:22.913Z,29.63
2017-10-03T00:02:51.256Z,41.23
2017-10-03T00:05:18.848Z,41.23
2017-10-03T00:07:46.818Z,31.67
2017-10-03T00:10:14.387Z,32.87
2017-10-03T00:12:42.833Z,30.07
2017-10-03T00:15:10.432Z,35.13
2017-10-03T00:17:38.804Z,35.80
2017-10-03T00:20:07.164Z,32.93
2017-10-03T00:22:34.743Z,28.60
2017-10-03T00:25:03.099Z,29.80
2017-10-03T00:27:30.668Z,28.90
2017-10-03T00:29:58.340Z,30.83
2017-10-03T00:32:26.675Z,41.35
2017-10-03T00:34:54.265Z,27.00
2017-10-03T00:37:22.847Z,38.70
2017-10-03T00:39:50.444Z,36.47
2017-10-03T00:42:18.780Z,45.17
2017-10-03T00:44:46.376Z,62.23
2017-10-03T00:47:14.712Z,45.70
2017-10-03T00:49:42.515Z,36.43
2017-10-03T00:52:10.084Z,35.00
2017-10-03T00:54:38.420Z,29.85
2017-10-03T00:57:06.108Z,29.13
2017-10-03T00:59:33.676Z,34.88
2017-10-03T01:02:01.274Z,42.05
2017-10-03T01:04:28.851Z,35.55
2017-10-03T01:06:56.616Z,32.93
2017-10-03T01:09:24.188Z,30.00
2017-10-03T01:11:51.760Z,57.87
2017-10-03T01:14:19.605Z,28.40
2017-10-03T01:16:47.194Z,29.10
2017-10-03T01:19:14.898Z,27.40
2017-10-03T01:21:43.227Z,29.40
2017-10-03T01:24:10.835Z,19.90
2017-10-03T01:26:39.180Z,38.05
2017-10-03T01:29:06.792Z,29.67
2017-10-03T01:31:34.387Z,24.50
2017-10-03T01:34:02.080Z,25.73
2017-10-03T01:36:29.657Z,26.42
2017-10-03T01:38:58.016Z,24.43
2017-10-03T01:41:26.110Z,40.47
2017-10-03T01:43:54.464Z,28.40
2017-10-03T01:46:22.961Z,25.53
2017-10-03T01:48:51.324Z,23.83
2017-10-03T01:51:18.889Z,43.37
2017-10-03T01:53:46.757Z,41.33
2017-10-03T01:56:14.421Z,22.73
2017-10-03T01:58:41.984Z,24.60
2017-10-03T02:01:09.825Z,31.13
2017-10-03T02:03:37.396Z,24.37
2017-10-03T02:06:04.987Z,33.33
2017-10-03T02:08:33.332Z,35.80
2017-10-03T02:11:00.924Z,25.63
2017-10-03T02:13:29.263Z,24.60
2017-10-03T02:15:56.859Z,26.03
2017-10-03T02:18:25.194Z,24.23
2017-10-03T02:20:52.792Z,25.63
2017-10-03T02:23:21.952Z,36.25
2017-10-03T02:25:49.696Z,27.40
2017-10-03T02:28:17.273Z,30.83
2017-10-03T02:30:44.870Z,38.83
2017-10-03T02:33:12.459Z,34.33
2017-10-03T02:35:40.032Z,24.80
2017-10-03T02:38:07.623Z,35.37
2017-10-03T02:40:35.216Z,24.70
2017-10-03T02:43:02.807Z,33.43
2017-10-03T02:45:30.379Z,34.88
2017-10-03T02:47:58.244Z,24.30
2017-10-03T02:50:25.816Z,30.47
2017-10-03T02:52:53.424Z,28.80
2017-10-03T02:55:22.032Z,26.60
2017-10-03T02:57:50.392Z,32.10
2017-10-03T03:00:17.980Z,23.10
2017-10-03T03:02:46.336Z,30.80
2017-10-03T03:05:13.928Z,26.80
2017-10-03T03:07:41.496Z,23.63
2017-10-03T03:10:09.097Z,23.70
2017-10-03T03:12:36.665Z,31.43
2017-10-03T03:15:04.255Z,31.63
2017-10-03T03:17:32.592Z,29.83
2017-10-03T03:20:00.277Z,51.23
2017-10-03T03:22:27.848Z,36.97
2017-10-03T03:24:56.420Z,32.00
2017-10-03T03:27:24.758Z,38.13
2017-10-03T03:29:52.329Z,36.90
2017-10-03T03:32:21.963Z,31.35
2017-10-03T03:34:49.528Z,22.40
2017-10-03T03:37:17.116Z,28.07
2017-10-03T03:39:45.681Z,22.50
2017-10-03T03:42:14.048Z,18.57
2017-10-03T03:44:41.715Z,23.47
2017-10-03T03:47:09.311Z,27.47
2017-10-03T03:49:36.875Z,23.73
2017-10-03T03:52:04.459Z,29.77
2017-10-03T03:54:32.028Z,29.33
2017-10-03T03:56:59.625Z,29.70
2017-10-03T03:59:27.251Z,27.25
2017-10-03T04:01:54.844Z,23.90
2017-10-03T04:04:23.702Z,22.08
2017-10-03T04:06:51.296Z,22.33
2017-10-03T04:09:18.864Z,25.70
2017-10-03T04:11:47.224Z,23.90
2017-10-03T04:14:14.796Z,32.10
2017-10-03T04:16:42.428Z,23.17
2017-10-03T04:19:09.992Z,34.97
2017-10-03T04:21:37.580Z,15.23
2017-10-03T04:24:05.167Z,16.00
2017-10-03T04:26:33.507Z,16.23
2017-10-03T04:29:01.111Z,24.97
2017-10-03T04:31:28.700Z,19.73
2017-10-03T04:33:56.292Z,30.20
2017-10-03T04:36:23.855Z,22.97
2017-10-03T04:38:52.218Z,24.70
2017-10-03T04:41:21.916Z,19.83
2017-10-03T04:43:49.503Z,23.83
2017-10-03T04:46:17.839Z,16.90
2017-10-03T04:48:45.828Z,22.03
2017-10-03T04:51:13.391Z,17.60
2017-10-03T04:53:40.955Z,23.87
2017-10-03T04:56:08.544Z,17.13
2017-10-03T04:58:36.129Z,19.73
2017-10-03T05:01:04.489Z,20.90
2017-10-03T05:03:32.831Z,14.00
2017-10-03T05:06:00.416Z,18.37
2017-10-03T05:08:27.976Z,17.87
2017-10-03T05:10:55.568Z,29.57
2017-10-03T05:13:23.900Z,20.63
2017-10-03T05:15:51.488Z,19.07
2017-10-03T05:18:19.328Z,25.20
2017-10-03T05:20:46.949Z,25.55
2017-10-03T05:23:14.519Z,39.97
2017-10-03T05:25:42.100Z,42.55
2017-10-03T05:28:09.687Z,34.00
2017-10-03T05:30:37.272Z,22.10
2017-10-03T05:33:05.664Z,35.37
2017-10-03T05:35:33.232Z,25.73
2017-10-03T05:38:00.796Z,19.83
2017-10-03T05:40:28.380Z,21.27
2017-10-03T05:42:55.944Z,30.33
2017-10-03T05:45:25.780Z,31.42
2017-10-03T05:47:53.348Z,26.53
2017-10-03T05:50:20.944Z,32.22
2017-10-03T05:52:48.508Z,24.30
2017-10-03T05:55:16.103Z,22.73
2017-10-03T05:57:43.672Z,27.80
2017-10-03T06:00:11.267Z,22.20
2017-10-03T06:02:39.596Z,37.77
2017-10-03T06:05:07.296Z,28.27
2017-10-03T06:07:34.863Z,25.62
2017-10-03T06:10:02.452Z,24.93
2017-10-03T06:12:30.024Z,17.80
2017-10-03T06:14:57.611Z,23.93
2017-10-03T06:17:26.603Z,22.83
2017-10-03T06:19:54.192Z,37.50
2017-10-03T06:22:21.759Z,23.90
2017-10-03T06:24:49.343Z,19.57
2017-10-03T06:27:16.908Z,28.97
2017-10-03T06:29:44.508Z,31.43
2017-10-03T06:32:12.075Z,27.57
2017-10-03T06:34:39.640Z,31.05
2017-10-03T06:37:07.226Z,29.87
2017-10-03T06:39:34.795Z,31.10
2017-10-03T06:42:03.165Z,20.47
2017-10-03T06:44:30.732Z,28.00
2017-10-03T06:46:59.080Z,33.23
2017-10-03T06:49:26.663Z,27.63
2017-10-03T06:51:54.993Z,29.70
2017-10-03T06:54:24.332Z,27.10
2017-10-03T06:56:51.892Z,25.03
2017-10-03T06:59:19.460Z,24.40
2017-10-03T07:01:47.052Z,26.37
2017-10-03T07:04:14.616Z,22.23
2017-10-03T07:06:42.252Z,28.52
2017-10-03T07:09:09.812Z,20.87
2017-10-03T07:11:38.393Z,23.73
2017-10-03T07:14:05.964Z,25.87
2017-10-03T07:16:34.296Z,24.97
2017-10-03T07:19:01.893Z,25.87
2017-10-03T07:21:29.451Z,24.30
2017-10-03T07:23:58.564Z,24.40
2017-10-03T07:26:26.890Z,26.93
2017-10-03T07:28:54.452Z,26.17
2017-10-03T07:31:22.072Z,19.63
2017-10-03T07:33:50.404Z,19.60
2017-10-03T07:36:18.008Z,23.87
2017-10-03T07:38:46.351Z,20.60
2017-10-03T07:41:13.923Z,25.08
2017-10-03T07:43:41.532Z,18.63
2017-10-03T07:46:09.095Z,24.43
2017-10-03T07:48:36.704Z,21.20
2017-10-03T07:51:04.272Z,19.50
2017-10-03T07:53:31.836Z,18.00
2017-10-03T07:55:59.597Z,17.17
2017-10-03T07:58:28.033Z,11.93
2017-10-03T08:00:55.600Z,22.53
2017-10-03T08:03:24.116Z,19.67
2017-10-03T08:05:51.675Z,17.50
2017-10-03T08:08:19.440Z,18.87
2017-10-03T08:10:47.391Z,15.97
2017-10-03T08:13:14.972Z,17.60
2017-10-03T08:15:42.567Z,15.20
2017-10-03T08:18:10.161Z,13.53
2017-10-03T08:20:37.740Z,11.43
2017-10-03T08:23:05.647Z,16.37
2017-10-03T08:25:33.984Z,18.63
2017-10-03T08:28:01.664Z,18.80
2017-10-03T08:30:29.234Z,11.12
2017-10-03T08:32:56.888Z,13.87
2017-10-03T08:35:26.668Z,11.07
2017-10-03T08:37:54.245Z,14.53
2017-10-03T08:40:21.836Z,15.10
2017-10-03T08:42:50.168Z,15.50
2017-10-03T08:45:17.765Z,15.70
2017-10-03T08:47:45.335Z,13.93
2017-10-03T08:50:13.688Z,21.00
2017-10-03T08:52:41.256Z,13.03
2017-10-03T08:55:08.920Z,11.20
2017-10-03T08:57:36.585Z,18.00
2017-10-03T09:00:04.152Z,14.27
2017-10-03T09:02:31.739Z,12.30
2017-10-03T09:04:59.304Z,11.77
2017-10-03T09:07:26.891Z,13.07
2017-10-03T09:09:54.488Z,12.57
2017-10-03T09:12:22.148Z,8.83
2017-10-03T09:14:49.720Z,19.57
2017-10-03T09:17:18.088Z,12.13
2017-10-03T09:19:45.651Z,10.07
2017-10-03T09:22:14.758Z,6.70
2017-10-03T09:24:42.412Z,6.28
2017-10-03T09:27:10.074Z,7.07
2017-10-03T09:29:38.404Z,8.63
2017-10-03T09:32:06.216Z,7.57
2017-10-03T09:34:33.777Z,7.80
2017-10-03T09:37:01.448Z,5.57
2017-10-03T09:39:29.813Z,4.70
2017-10-03T09:41:57.485Z,4.57
2017-10-03T09:44:26.780Z,5.63
2017-10-03T09:46:55.119Z,7.10
2017-10-03T09:49:24.448Z,8.32
2017-10-03T09:51:52.012Z,7.67
2017-10-03T09:54:19.575Z,4.43
2017-10-03T09:56:47.243Z,2.33
2017-10-03T09:59:14.908Z,6.20
2017-10-03T10:01:42.484Z,4.45
2017-10-03T10:04:10.856Z,12.40
2017-10-03T10:06:38.447Z,14.13
2017-10-03T10:09:06.007Z,6.53
2017-10-03T10:11:33.596Z,9.77
2017-10-03T10:14:01.156Z,6.40
2017-10-03T10:16:28.751Z,4.90
2017-10-03T10:18:56.313Z,5.87
2017-10-03T10:21:26.111Z,6.57
2017-10-03T10:23:53.696Z,2.13
2017-10-03T10:26:23.011Z,3.30
2017-10-03T10:28:51.339Z,2.60
2017-10-03T10:31:18.927Z,3.72
2017-10-03T10:33:46.587Z,2.67
2017-10-03T10:36:14.965Z,4.43
2017-10-03T10:38:42.640Z,2.62
2017-10-03T10:41:10.200Z,2.73
2017-10-03T10:43:37.788Z,2.40
2017-10-03T10:46:05.416Z,2.33
2017-10-03T10:48:33.008Z,1.37
2017-10-03T10:51:01.331Z,3.50
2017-10-03T10:53:28.941Z,5.20
2017-10-03T10:55:57.276Z,2.17
2017-10-03T10:58:26.807Z,3.33
2017-10-03T11:00:54.464Z,3.70
2017-10-03T11:03:23.735Z,5.03
2017-10-03T11:05:51.320Z,4.10
2017-10-03T11:08:18.897Z,2.30
2017-10-03T11:10:46.492Z,2.30
2017-10-03T11:13:14.108Z,4.93
2017-10-03T11:15:41.706Z,5.20
2017-10-03T11:18:09.264Z,9.00
2017-10-03T11:20:36.831Z,4.20
2017-10-03T11:23:16.269Z,6.27
2017-10-03T11:25:43.833Z,2.03
2017-10-03T11:28:11.420Z,6.37
2017-10-03T11:30:38.993Z,4.70
2017-10-03T11:33:06.579Z,6.87
2017-10-03T11:35:34.155Z,2.13
2017-10-03T11:38:02.624Z,2.93
2017-10-03T11:40:30.184Z,3.17
2017-10-03T11:42:57.751Z,11.47
2017-10-03T11:45:26.727Z,5.37
2017-10-03T11:47:54.287Z,4.73
2017-10-03T11:50:21.955Z,5.13
2017-10-03T11:52:49.611Z,4.63
2017-10-03T11:55:17.275Z,5.10
2017-10-03T11:57:45.656Z,6.20
2017-10-03T12:00:13.239Z,3.30
2017-10-03T12:02:41.600Z,3.62
2017-10-03T12:05:09.256Z,4.33
2017-10-03T12:07:36.819Z,5.90
2017-10-03T12:10:04.409Z,6.67
2017-10-03T12:12:32.740Z,6.17
2017-10-03T12:15:00.336Z,4.47
2017-10-03T12:17:28.700Z,5.87
2017-10-03T12:19:56.264Z,8.60
2017-10-03T12:22:25.749Z,6.28
2017-10-03T12:24:53.327Z,4.23
2017-10-03T12:27:20.920Z,7.97
2017-10-03T12:29:49.264Z,4.30
2017-10-03T12:32:16.852Z,5.27
2017-10-03T12:34:45.184Z,5.40
2017-10-03T12:37:12.799Z,10.17
2017-10-03T12:39:40.397Z,4.47
2017-10-03T12:42:07.968Z,7.60
2017-10-03T12:44:35.560Z,4.90
2017-10-03T12:47:03.120Z,6.17
2017-10-03T12:49:30.928Z,7.37
2017-10-03T12:51:58.501Z,5.53
2017-10-03T12:54:26.072Z,10.20
2017-10-03T12:56:53.760Z,6.77
2017-10-03T12:59:21.323Z,6.30
2017-10-03T13:01:48.981Z,4.97
2017-10-03T13:04:16.544Z,4.30
2017-10-03T13:06:44.137Z,4.07
2017-10-03T13:09:11.708Z,10.80
2017-10-03T13:11:39.300Z,2.50
2017-10-03T13:14:06.888Z,6.93
2017-10-03T13:16:34.505Z,6.97
2017-10-03T13:19:02.070Z,3.37
2017-10-03T13:21:29.636Z,6.15
2017-10-03T13:23:57.272Z,5.00
2017-10-03T13:26:25.924Z,4.50
2017-10-03T13:28:53.521Z,11.10
2017-10-03T13:31:21.084Z,2.17
2017-10-03T13:33:48.808Z,5.30
2017-10-03T13:36:16.465Z,3.17
2017-10-03T13:38:44.048Z,3.72
2017-10-03T13:41:12.400Z,3.20
2017-10-03T13:43:41.473Z,2.87
2017-10-03T13:46:09.165Z,4.63
2017-10-03T13:48:36.728Z,5.40
2017-10-03T13:51:04.317Z,2.73
2017-10-03T13:53:31.892Z,13.37
2017-10-03T13:55:59.477Z,2.90
2017-10-03T13:58:27.049Z,5.00
2017-10-03T14:00:54.635Z,6.37
2017-10-03T14:03:23.884Z,2.37
2017-10-03T14:05:51.472Z,5.00
2017-10-03T14:08:19.032Z,8.30
2017-10-03T14:10:46.820Z,4.70
2017-10-03T14:13:14.481Z,3.87
2017-10-03T14:15:42.149Z,3.97
2017-10-03T14:18:10.624Z,5.47
2017-10-03T14:20:38.188Z,7.05
2017-10-03T14:23:07.280Z,5.73
2017-10-03T14:25:34.872Z,4.60
2017-10-03T14:28:03.201Z,8.47
2017-10-03T14:30:30.788Z,5.40
2017-10-03T14:32:58.361Z,4.33
2017-10-03T14:35:26.213Z,4.85
2017-10-03T14:37:55.288Z,2.80
2017-10-03T14:40:24.114Z,7.50
2017-10-03T14:42:52.472Z,4.23
2017-10-03T14:45:20.072Z,5.70
2017-10-03T14:47:47.691Z,9.67
2017-10-03T14:50:15.355Z,6.50
2017-10-03T14:52:44.234Z,6.70
2017-10-03T14:55:12.831Z,5.03
2017-10-03T14:57:40.393Z,7.15
2017-10-03T15:00:07.957Z,6.00
2017-10-03T15:02:36.329Z,6.00
2017-10-03T15:05:03.996Z,8.77
2017-10-03T15:07:31.596Z,5.20
2017-10-03T15:09:59.160Z,5.50
2017-10-03T15:12:26.748Z,8.80
2017-10-03T15:14:54.339Z,11.77
2017-10-03T15:17:22.000Z,3.60
2017-10-03T15:19:51.068Z,3.87
2017-10-03T15:22:18.760Z,7.23
2017-10-03T15:24:46.324Z,5.27
2017-10-03T15:27:13.911Z,5.90
2017-10-03T15:29:42.268Z,9.13
2017-10-03T15:32:09.868Z,5.23
2017-10-03T15:34:37.436Z,4.33
2017-10-03T15:37:04.995Z,7.93
2017-10-03T15:39:32.612Z,7.57
2017-10-03T15:42:00.172Z,4.80
2017-10-03T15:44:27.933Z,6.17
2017-10-03T15:46:55.496Z,11.17
2017-10-03T15:49:24.799Z,7.23
2017-10-03T15:51:52.540Z,4.27
2017-10-03T15:54:20.100Z,7.50
2017-10-03T15:56:47.660Z,2.50
2017-10-03T15:59:15.256Z,8.27
2017-10-03T16:01:43.623Z,3.80
2017-10-03T16:04:11.288Z,6.30
2017-10-03T16:06:39.667Z,6.73
2017-10-03T16:09:07.560Z,6.90
2017-10-03T16:11:35.891Z,7.03
2017-10-03T16:14:03.452Z,4.63
2017-10-03T16:16:31.127Z,3.17
2017-10-03T16:18:58.891Z,5.60
2017-10-03T16:21:26.564Z,5.87
2017-10-03T16:23:54.128Z,2.80
2017-10-03T16:26:21.880Z,5.03
2017-10-03T16:28:49.445Z,5.30
2017-10-03T16:31:17.012Z,10.75
2017-10-03T16:33:44.595Z,6.90
2017-10-03T16:36:12.924Z,8.93
2017-10-03T16:38:40.516Z,6.10
2017-10-03T16:41:08.844Z,3.20
2017-10-03T16:43:36.653Z,6.13
2017-10-03T16:46:04.224Z,3.50
2017-10-03T16:48:32.556Z,12.73
2017-10-03T16:51:00.144Z,7.03
2017-10-03T16:53:27.712Z,5.20
2017-10-03T16:55:55.372Z,3.20
2017-10-03T16:58:24.126Z,4.20
2017-10-03T17:00:51.724Z,2.90
2017-10-03T17:03:19.285Z,5.80
2017-10-03T17:05:46.872Z,8.90
2017-10-03T17:08:15.220Z,5.80
2017-10-03T17:10:42.805Z,4.37
2017-10-03T17:13:11.148Z,8.20
2017-10-03T17:15:38.747Z,10.25
2017-10-03T17:18:07.096Z,5.80
2017-10-03T17:20:34.660Z,4.40
2017-10-03T17:23:02.243Z,7.43
2017-10-03T17:25:30.580Z,7.20
2017-10-03T17:27:58.166Z,9.77
2017-10-03T17:30:26.825Z,8.53
2017-10-03T17:32:54.432Z,5.20
2017-10-03T17:35:23.679Z,6.80
2017-10-03T17:37:51.267Z,5.85
2017-10-03T17:40:18.856Z,5.47
2017-10-03T17:42:47.182Z,3.23
2017-10-03T17:45:14.768Z,4.00
2017-10-03T17:47:42.328Z,7.47
2017-10-03T17:50:10.095Z,5.47
2017-10-03T17:52:37.660Z,4.97
2017-10-03T17:55:05.997Z,12.43
2017-10-03T17:57:33.644Z,13.40
2017-10-03T18:00:01.215Z,6.73
2017-10-03T18:02:28.789Z,6.05
2017-10-03T18:04:56.664Z,8.67
2017-10-03T18:07:25.995Z,7.57
2017-10-03T18:09:53.620Z,4.20
2017-10-03T18:12:21.208Z,5.03
2017-10-03T18:14:49.177Z,8.53
2017-10-03T18:17:16.768Z,9.97
2017-10-03T18:19:46.635Z,10.87
2017-10-03T18:22:14.220Z,3.07
2017-10-03T18:24:42.547Z,3.53
2017-10-03T18:27:10.141Z,6.10
2017-10-03T18:29:37.708Z,6.10
2017-10-03T18:32:05.299Z,5.20
2017-10-03T18:34:33.754Z,9.27
2017-10-03T18:37:01.347Z,9.10
2017-10-03T18:39:29.677Z,3.97
2017-10-03T18:41:57.272Z,3.53
2017-10-03T18:44:26.756Z,6.35
2017-10-03T18:46:54.441Z,7.50
2017-10-03T18:49:24.191Z,4.60
2017-10-03T18:51:51.761Z,8.70
2017-10-03T18:54:19.331Z,11.87
2017-10-03T18:56:46.962Z,9.13
2017-10-03T18:59:14.524Z,8.67
2017-10-03T19:01:42.116Z,10.48
2017-10-03T19:04:09.730Z,9.43
2017-10-03T19:06:38.084Z,8.20
2017-10-03T19:09:05.644Z,5.70
2017-10-03T19:11:33.236Z,10.23
2017-10-03T19:14:01.395Z,18.97
2017-10-03T19:16:29.747Z,4.90
2017-10-03T19:18:57.308Z,9.47
2017-10-03T19:21:26.007Z,8.25
2017-10-03T19:23:55.084Z,7.10
2017-10-03T19:26:23.656Z,10.40
2017-10-03T19:28:51.244Z,9.57
2017-10-03T19:31:19.628Z,7.40
2017-10-03T19:33:47.985Z,6.37
2017-10-03T19:36:15.547Z,5.13
2017-10-03T19:38:43.232Z,10.50
2017-10-03T19:41:10.800Z,7.00
2017-10-03T19:43:39.159Z,8.23
2017-10-03T19:46:06.829Z,11.73
2017-10-03T19:48:35.335Z,9.13
2017-10-03T19:51:03.663Z,7.80
2017-10-03T19:53:31.232Z,12.00
2017-10-03T19:55:58.820Z,6.90
2017-10-03T19:58:26.480Z,16.13
2017-10-03T20:00:54.141Z,10.67
2017-10-03T20:03:21.705Z,8.93
2017-10-03T20:05:49.297Z,13.07
2017-10-03T20:08:16.872Z,10.10
2017-10-03T20:10:44.684Z,11.70
2017-10-03T20:13:12.285Z,9.97
2017-10-03T20:15:39.890Z,8.75
2017-10-03T20:18:07.472Z,8.57
2017-10-03T20:20:35.036Z,11.45
2017-10-03T20:23:02.628Z,14.23
2017-10-03T20:25:30.184Z,6.97
2017-10-03T20:27:58.543Z,14.17
2017-10-03T20:30:26.900Z,10.00
2017-10-03T20:32:54.500Z,7.60
2017-10-03T20:35:23.751Z,9.93
2017-10-03T20:37:51.319Z,9.97
2017-10-03T20:40:18.911Z,15.17
2017-10-03T20:42:47.235Z,11.00
2017-10-03T20:45:14.796Z,7.57
2017-10-03T20:47:42.388Z,11.10
2017-10-03T20:50:10.053Z,10.10
2017-10-03T20:52:37.615Z,11.20
2017-10-03T20:55:05.180Z,10.17
2017-10-03T20:57:32.836Z,16.52
2017-10-03T21:00:01.935Z,11.53
2017-10-03T21:02:29.524Z,15.10
2017-10-03T21:04:58.587Z,11.70
2017-10-03T21:07:27.176Z,23.43
2017-10-03T21:09:54.736Z,10.40
2017-10-03T21:12:23.983Z,14.83
2017-10-03T21:14:51.569Z,12.90
2017-10-03T21:17:19.152Z,12.03
2017-10-03T21:19:46.711Z,13.73
2017-10-03T21:22:14.304Z,12.30
2017-10-03T21:24:42.628Z,13.47
2017-10-03T21:27:10.224Z,19.63
2017-10-03T21:29:37.784Z,14.02
2017-10-03T21:32:05.344Z,14.63
2017-10-03T21:34:32.931Z,11.70
2017-10-03T21:37:01.256Z,16.10
2017-10-03T21:39:28.841Z,17.90
2017-10-03T21:45:01.088Z,16.17
2017-10-03T21:47:28.648Z,14.23
2017-10-03T21:49:56.236Z,20.73
2017-10-03T21:52:24.076Z,18.58
2017-10-03T21:54:51.664Z,19.13
2017-10-03T21:57:19.227Z,15.97
2017-10-03T21:59:46.816Z,24.87
2017-10-03T22:02:15.152Z,19.40
2017-10-03T22:04:42.820Z,17.52
2017-10-03T22:07:10.380Z,14.17
2017-10-03T22:09:38.803Z,14.77
2017-10-03T22:12:07.135Z,15.73
2017-10-03T22:14:34.924Z,16.77
2017-10-03T22:17:02.484Z,12.43
2017-10-03T22:19:30.863Z,13.80
2017-10-03T22:21:58.443Z,9.63
2017-10-03T22:24:26.777Z,13.53
2017-10-03T22:26:54.370Z,13.73
2017-10-03T22:29:21.929Z,24.60
2017-10-03T22:31:49.511Z,11.70
2017-10-03T22:34:17.840Z,13.63
2017-10-03T22:36:45.432Z,26.43
2017-10-03T22:39:12.987Z,13.67
2017-10-03T22:41:40.687Z,11.82
2017-10-03T22:44:08.243Z,14.53
2017-10-03T22:46:35.817Z,14.43
2017-10-03T22:49:03.403Z,14.97
2017-10-03T22:51:36.619Z,23.47
2017-10-03T22:54:04.205Z,15.47
2017-10-03T22:56:32.536Z,11.80
2017-10-03T22:59:00.128Z,13.80
2017-10-03T23:01:27.708Z,13.67
2017-10-03T23:03:56.072Z,12.00
2017-10-03T23:06:25.176Z,11.63
2017-10-03T23:08:53.532Z,11.17
2017-10-03T23:11:21.092Z,11.33
2017-10-03T23:13:48.692Z,11.80
2017-10-03T23:16:17.022Z,10.63
2017-10-03T23:18:44.584Z,19.43
2017-10-03T23:21:12.264Z,13.87
2017-10-03T23:23:39.831Z,18.40
2017-10-03T23:26:07.417Z,13.63
2017-10-03T23:28:34.980Z,18.48
2017-10-03T23:31:02.566Z,16.60
2017-10-03T23:33:30.132Z,12.24
2017-10-03T23:35:57.735Z,11.40
2017-10-03T23:38:25.912Z,14.32
2017-10-03T23:40:53.476Z,12.20
2017-10-03T23:43:21.827Z,11.97
2017-10-03T23:45:49.388Z,16.70
2017-10-03T23:48:16.976Z,18.17
2017-10-03T23:50:45.304Z,11.67
2017-10-03T23:53:13.007Z,13.30
2017-10-03T23:55:40.574Z,14.27
2017-10-03T23:58:08.136Z,14.80
